Time;durP1;ratioP1;P1;durP2;ratioP2;P2;SDS_P1;SDS_P2;PMS_P1;PMS_P2;Temp;Humidity;BMP_temperature;BMP_pressure;BME280_temperature;BME280_humidity;BME280_pressure;Samples;Min_cycle;Max_cycle;Signal;HPM_P1;HPM_P2
2022/08/22 00:02:24;;;;;;;10.10;9.80;;;17.60;99.90;;;;;;5021612;28;20244;-79
2022/08/22 00:04:59;;;;;;;10.02;9.73;;;17.50;99.90;;;;;;5021061;28;20238;-80
2022/08/22 00:07:48;;;;;;;10.38;10.07;;;17.40;99.90;;;;;;5022513;28;20322;-79
2022/08/22 00:10:26;;;;;;;10.07;9.77;;;17.40;99.90;;;;;;5022932;28;20242;-81
2022/08/22 00:13:04;;;;;;;10.10;9.80;;;17.40;99.90;;;;;;5021200;28;20412;-79
2022/08/22 00:15:40;;;;;;;10.23;9.93;;;17.40;99.90;;;;;;5021444;28;20228;-79
2022/08/22 00:18:22;;;;;;;10.15;9.85;;;17.30;99.90;;;;;;5020817;28;20231;-78
2022/08/22 00:21:01;;;;;;;10.30;10.00;;;17.30;99.90;;;;;;5024069;28;20239;-79
2022/08/22 00:23:38;;;;;;;10.40;10.10;;;17.20;99.90;;;;;;5025409;28;20291;-79
2022/08/22 00:26:19;;;;;;;10.20;9.90;;;17.20;99.90;;;;;;5024052;28;20312;-79
2022/08/22 00:28:53;;;;;;;10.25;9.95;;;17.20;99.90;;;;;;5020990;28;20267;-79
2022/08/22 00:31:32;;;;;;;10.23;9.93;;;17.10;99.90;;;;;;5021108;28;20232;-78
2022/08/22 00:34:10;;;;;;;10.10;9.80;;;17.10;99.90;;;;;;5021012;28;20232;-79
2022/08/22 00:36:48;;;;;;;10.23;9.93;;;17.00;99.90;;;;;;5019984;28;20208;-78
2022/08/22 00:39:22;;;;;;;10.45;10.15;;;17.00;99.90;;;;;;5020361;28;20259;-79
2022/08/22 00:42:32;;;;;;;10.52;10.23;;;17.00;99.90;;;;;;5020003;28;20232;-78
2022/08/22 00:45:53;;;;;;;10.50;10.20;;;16.90;99.90;;;;;;5013395;28;20346;-79
2022/08/22 00:49:14;;;;;;;10.45;10.15;;;16.90;99.90;;;;;;5020088;28;20238;-78
2022/08/22 00:52:26;;;;;;;10.50;10.20;;;16.80;99.90;;;;;;5003854;28;20239;-79
2022/08/22 00:55:34;;;;;;;10.50;10.20;;;16.80;99.90;;;;;;5019868;28;20238;-80
2022/08/22 00:58:51;;;;;;;10.52;10.23;;;16.70;99.90;;;;;;5020427;28;20292;-80
2022/08/22 01:01:30;;;;;;;10.75;10.45;;;16.60;99.90;;;;;;5019622;28;20225;-79
2022/08/22 01:04:35;;;;;;;10.60;10.30;;;16.60;99.90;;;;;;5019729;28;20248;-78
2022/08/22 01:07:22;;;;;;;10.30;10.00;;;16.50;99.90;;;;;;5019070;28;20236;-79
2022/08/22 01:10:07;;;;;;;10.73;10.43;;;16.50;99.90;;;;;;5019983;28;20318;-79
2022/08/22 01:12:52;;;;;;;10.60;10.30;;;16.40;99.90;;;;;;5020912;28;20236;-79
2022/08/22 01:15:30;;;;;;;10.52;10.23;;;16.40;99.90;;;;;;5019707;28;20247;-78
2022/08/22 01:18:34;;;;;;;10.50;10.20;;;16.30;99.90;;;;;;5020115;28;20328;-78
2022/08/22 01:21:50;;;;;;;10.20;9.90;;;16.30;99.90;;;;;;5020454;28;20223;-79
2022/08/22 01:25:18;;;;;;;10.35;10.05;;;16.30;99.90;;;;;;5010546;28;20240;-79
2022/08/22 01:28:24;;;;;;;10.40;10.10;;;16.30;99.90;;;;;;5019733;28;20230;-79
2022/08/22 01:31:36;;;;;;;10.43;10.13;;;16.20;99.90;;;;;;5019591;28;20296;-79
2022/08/22 01:34:59;;;;;;;10.35;10.05;;;16.20;99.90;;;;;;5020012;28;20288;-79
2022/08/22 01:37:54;;;;;;;10.50;10.20;;;16.20;99.90;;;;;;5003613;28;20343;-79
2022/08/22 01:41:16;;;;;;;10.30;10.00;;;16.10;99.90;;;;;;5019432;28;20228;-79
2022/08/22 01:44:13;;;;;;;10.32;10.02;;;16.10;99.90;;;;;;5007623;28;20240;-79
2022/08/22 01:46:55;;;;;;;10.50;10.20;;;16.10;99.90;;;;;;5019132;28;20239;-79
2022/08/22 01:49:28;;;;;;;10.75;10.45;;;16.10;99.90;;;;;;5018564;28;20234;-80
2022/08/22 01:52:33;;;;;;;10.40;10.10;;;16.10;99.90;;;;;;5019227;28;20250;-79
2022/08/22 01:55:12;;;;;;;10.50;10.20;;;16.10;99.90;;;;;;5018409;28;20240;-80
2022/08/22 01:58:00;;;;;;;10.45;10.15;;;16.00;99.90;;;;;;5019004;28;20331;-80
2022/08/22 02:00:35;;;;;;;10.40;10.10;;;16.00;99.90;;;;;;5019509;28;20235;-79
2022/08/22 02:03:23;;;;;;;10.50;10.20;;;15.90;99.90;;;;;;5019055;28;20359;-79
2022/08/22 02:06:01;;;;;;;10.52;10.23;;;15.90;99.90;;;;;;5018414;28;20224;-80
2022/08/22 02:08:44;;;;;;;10.60;10.30;;;15.90;99.90;;;;;;5019096;28;20243;-80
2022/08/22 02:11:37;;;;;;;10.65;10.35;;;15.80;99.90;;;;;;5019086;28;20244;-80
2022/08/22 02:14:17;;;;;;;10.60;10.30;;;15.80;99.90;;;;;;5019004;28;20236;-80
2022/08/22 02:16:48;;;;;;;10.50;10.20;;;15.80;99.90;;;;;;5018298;28;20235;-79
2022/08/22 02:19:36;;;;;;;10.43;10.13;;;15.70;99.90;;;;;;5019581;28;20224;-80
2022/08/22 02:22:20;;;;;;;10.70;10.40;;;15.70;99.90;;;;;;5018936;28;20266;-79
2022/08/22 02:25:08;;;;;;;10.70;10.40;;;15.70;99.90;;;;;;5018171;28;20271;-79
2022/08/22 02:27:47;;;;;;;10.50;10.20;;;15.60;99.90;;;;;;5018990;28;20289;-79
2022/08/22 02:30:24;;;;;;;10.73;10.43;;;15.60;99.90;;;;;;5019335;28;20276;-80
2022/08/22 02:33:09;;;;;;;10.60;10.30;;;15.60;99.90;;;;;;5018560;28;20322;-79
2022/08/22 02:35:49;;;;;;;10.70;10.40;;;15.60;99.90;;;;;;5017984;28;20235;-79
2022/08/22 02:38:29;;;;;;;10.50;10.20;;;15.60;99.90;;;;;;5018804;28;20300;-80
2022/08/22 02:41:13;;;;;;;10.60;10.30;;;15.60;99.90;;;;;;5018824;28;20231;-79
2022/08/22 02:43:49;;;;;;;10.50;10.20;;;15.60;99.90;;;;;;5018644;28;20232;-79
2022/08/22 02:46:24;;;;;;;10.55;10.25;;;15.60;99.90;;;;;;5018113;28;20319;-79
2022/08/22 02:49:03;;;;;;;10.40;10.10;;;15.50;99.90;;;;;;5018177;28;20338;-79
2022/08/22 02:51:41;;;;;;;10.70;10.40;;;15.50;99.90;;;;;;5018445;28;20246;-80
2022/08/22 02:54:21;;;;;;;10.60;10.30;;;15.50;99.90;;;;;;5019084;28;20267;-78
2022/08/22 02:57:01;;;;;;;10.60;10.30;;;15.50;99.90;;;;;;5019138;28;20267;-78
2022/08/22 02:59:37;;;;;;;10.63;10.32;;;15.40;99.90;;;;;;5018525;28;20241;-79
2022/08/22 03:02:27;;;;;;;10.75;10.45;;;15.40;99.90;;;;;;5018259;28;20703;-81
2022/08/22 03:04:58;;;;;;;10.82;10.52;;;15.40;99.90;;;;;;5018584;28;20244;-80
2022/08/22 03:07:45;;;;;;;10.57;10.27;;;15.30;99.90;;;;;;5022364;28;20239;-79
2022/08/22 03:10:22;;;;;;;10.75;10.45;;;15.30;99.90;;;;;;5023141;28;20255;-80
2022/08/22 03:13:02;;;;;;;10.77;10.48;;;15.30;99.90;;;;;;5021813;28;20236;-79
2022/08/22 03:15:39;;;;;;;10.85;10.55;;;15.20;99.90;;;;;;5021916;28;20216;-80
2022/08/22 03:18:21;;;;;;;11.00;10.67;;;15.10;99.90;;;;;;5021686;28;20227;-79
2022/08/22 03:20:57;;;;;;;11.00;10.70;;;15.10;99.90;;;;;;5022657;28;20228;-80
2022/08/22 03:23:39;;;;;;;10.90;10.60;;;15.10;99.90;;;;;;5022158;28;20245;-80
2022/08/22 03:26:18;;;;;;;10.80;10.50;;;15.00;99.90;;;;;;5021369;28;20312;-80
2022/08/22 03:28:58;;;;;;;10.70;10.40;;;15.00;99.90;;;;;;5021897;28;20299;-80
2022/08/22 03:31:30;;;;;;;11.20;10.80;;;15.00;99.90;;;;;;5021536;28;20990;-80
2022/08/22 03:34:25;;;;;;;11.20;10.80;;;15.00;99.90;;;;;;5021476;28;20240;-80
2022/08/22 03:37:09;;;;;;;10.93;10.63;;;15.00;99.90;;;;;;4997433;28;20290;-79
2022/08/22 03:39:53;;;;;;;10.80;10.50;;;14.90;99.90;;;;;;5022106;28;20240;-80
2022/08/22 03:43:07;;;;;;;10.80;10.50;;;14.90;99.90;;;;;;5022023;28;20247;-79
2022/08/22 03:46:20;;;;;;;10.70;10.40;;;14.90;99.90;;;;;;5006610;28;20250;-79
2022/08/22 03:49:08;;;;;;;10.70;10.40;;;14.90;99.90;;;;;;5021044;28;20227;-80
2022/08/22 03:52:02;;;;;;;10.50;10.20;;;14.90;99.90;;;;;;5019942;28;20239;-79
2022/08/22 03:55:12;;;;;;;10.18;9.88;;;14.90;99.90;;;;;;5006394;28;20232;-79
2022/08/22 03:58:24;;;;;;;10.60;10.30;;;14.80;99.90;;;;;;5023318;28;20243;-79
2022/08/22 04:01:30;;;;;;;10.75;10.45;;;14.80;99.90;;;;;;5021318;28;20223;-80
2022/08/22 04:04:53;;;;;;;11.10;10.70;;;14.80;99.90;;;;;;5024830;28;20344;-80
2022/08/22 04:07:50;;;;;;;11.10;10.70;;;14.70;99.90;;;;;;5022174;28;20771;-79
2022/08/22 04:10:50;;;;;;;11.30;10.90;;;14.70;99.90;;;;;;5022130;28;20236;-80
2022/08/22 04:13:59;;;;;;;10.93;10.55;;;14.70;99.90;;;;;;5017956;28;20236;-80
2022/08/22 04:17:00;;;;;;;11.60;11.20;;;14.70;99.90;;;;;;5012771;28;20315;-80
2022/08/22 04:19:51;;;;;;;11.50;11.10;;;14.70;99.90;;;;;;5021731;28;20238;-79
2022/08/22 04:22:39;;;;;;;11.70;11.30;;;14.70;99.90;;;;;;5021441;28;20240;-79
2022/08/22 04:25:14;;;;;;;11.23;10.83;;;14.60;99.90;;;;;;5022568;28;20256;-79
2022/08/22 04:27:50;;;;;;;11.50;11.10;;;14.60;99.90;;;;;;5025601;28;20326;-79
2022/08/22 04:30:25;;;;;;;11.50;11.10;;;14.60;99.90;;;;;;5021830;28;20314;-80
2022/08/22 04:33:10;;;;;;;11.00;10.60;;;14.60;99.90;;;;;;5022426;28;20307;-79
2022/08/22 04:35:46;;;;;;;10.93;10.60;;;14.60;99.90;;;;;;5024320;28;20232;-79
2022/08/22 04:38:22;;;;;;;10.80;10.50;;;14.60;99.90;;;;;;5028239;28;20314;-78
2022/08/22 04:40:56;;;;;;;11.07;10.67;;;14.60;99.90;;;;;;5028016;28;20324;-80
2022/08/22 04:43:32;;;;;;;11.10;10.70;;;14.60;99.90;;;;;;5028006;28;20331;-78
2022/08/22 04:46:06;;;;;;;10.77;10.47;;;14.70;99.90;;;;;;5027235;28;20291;-79
2022/08/22 04:48:43;;;;;;;11.30;10.90;;;14.70;99.90;;;;;;5027693;28;20231;-79
2022/08/22 04:51:29;;;;;;;11.00;10.60;;;14.70;99.90;;;;;;5028420;28;20232;-78
2022/08/22 04:54:34;;;;;;;11.20;10.80;;;14.70;99.90;;;;;;5049731;22;20260;-84
2022/08/22 04:57:21;;;;;;;10.90;10.60;;;14.60;99.90;;;;;;5006991;28;20225;-84
2022/08/22 04:59:51;;;;;;;11.30;10.90;;;14.60;99.90;;;;;;5013667;28;20239;-85
2022/08/22 05:02:30;;;;;;;11.17;10.80;;;14.60;99.90;;;;;;5011491;28;20246;-85
2022/08/22 05:05:08;;;;;;;11.30;10.90;;;14.70;99.90;;;;;;5009254;28;20229;-85
2022/08/22 05:07:39;;;;;;;10.80;10.50;;;14.60;99.90;;;;;;5008136;28;20233;-85
2022/08/22 05:10:16;;;;;;;10.88;10.57;;;14.60;99.90;;;;;;5006936;28;20252;-85
2022/08/22 05:12:55;;;;;;;10.80;10.50;;;14.70;99.90;;;;;;5007124;28;20256;-85
2022/08/22 05:15:32;;;;;;;10.60;10.30;;;14.70;99.90;;;;;;5007686;28;20240;-85
2022/08/22 05:18:12;;;;;;;10.63;10.32;;;14.80;99.90;;;;;;5014935;28;20232;-83
2022/08/22 05:20:48;;;;;;;10.70;10.40;;;14.80;99.90;;;;;;5011467;28;20232;-85
2022/08/22 05:23:26;;;;;;;10.83;10.53;;;14.80;99.90;;;;;;5011696;28;20237;-85
2022/08/22 05:26:06;;;;;;;10.50;10.20;;;14.90;99.90;;;;;;5010091;28;20321;-85
2022/08/22 05:28:45;;;;;;;10.90;10.60;;;15.00;99.90;;;;;;5009822;28;20280;-85
2022/08/22 05:31:23;;;;;;;10.65;10.35;;;15.00;99.90;;;;;;5016518;28;20284;-83
2022/08/22 05:33:59;;;;;;;10.48;10.18;;;15.10;99.90;;;;;;5013795;28;20276;-86
2022/08/22 05:36:39;;;;;;;10.88;10.57;;;15.20;99.90;;;;;;5011177;28;20233;-83
2022/08/22 05:39:17;;;;;;;10.95;10.65;;;15.20;99.90;;;;;;5011455;28;20229;-85
2022/08/22 05:41:45;;;;;;;10.68;10.38;;;15.30;99.90;;;;;;5010291;28;20233;-86
2022/08/22 05:44:23;;;;;;;10.65;10.35;;;15.40;99.90;;;;;;5010932;28;20252;-85
2022/08/22 05:47:01;;;;;;;10.90;10.60;;;15.50;99.90;;;;;;5012144;28;20236;-84
2022/08/22 05:49:39;;;;;;;10.90;10.60;;;15.60;99.90;;;;;;5013566;28;20213;-84
2022/08/22 05:52:28;;;;;;;10.95;10.65;;;15.70;99.90;;;;;;5011987;28;20296;-85
2022/08/22 05:55:12;;;;;;;10.88;10.57;;;15.80;99.90;;;;;;5008670;28;20248;-86
2022/08/22 06:10:31;;;;;;;10.27;9.98;;;16.50;99.90;;;;;;5036148;28;20242;-87
2022/08/22 06:13:11;;;;;;;10.35;10.05;;;16.60;99.90;;;;;;5031229;28;20228;-87
2022/08/22 06:16:06;;;;;;;10.40;10.10;;;16.80;99.90;;;;;;5013340;28;20241;-87
2022/08/22 06:39:51;;;;;;;10.70;10.40;;;18.10;99.90;;;;;;4998181;28;20256;-87
2022/08/22 06:45:22;;;;;;;10.68;10.38;;;18.30;99.90;;;;;;4980801;28;20239;-83
2022/08/22 06:50:40;;;;;;;10.77;10.48;;;18.50;99.90;;;;;;5002520;28;20276;-83
2022/08/22 06:53:17;;;;;;;10.80;10.50;;;18.70;99.90;;;;;;4994870;28;20238;-84
2022/08/22 06:58:42;;;;;;;11.00;10.70;;;19.00;99.90;;;;;;5005782;28;20235;-83
2022/08/22 07:01:14;;;;;;;10.77;10.48;;;19.10;99.90;;;;;;5006810;28;20228;-83
2022/08/22 07:03:50;;;;;;;10.70;10.40;;;19.30;99.90;;;;;;5006209;28;20247;-84
2022/08/22 07:06:28;;;;;;;10.80;10.50;;;19.30;99.90;;;;;;5005743;28;20271;-84
2022/08/22 07:08:57;;;;;;;10.65;10.35;;;19.40;99.90;;;;;;5005735;28;20232;-84
2022/08/22 07:11:29;;;;;;;10.68;10.38;;;19.50;99.90;;;;;;5005473;28;20229;-84
2022/08/22 07:14:06;;;;;;;11.07;10.77;;;19.50;99.90;;;;;;5006940;28;20353;-85
2022/08/22 07:16:43;;;;;;;10.80;10.50;;;19.70;99.90;;;;;;5005538;28;20244;-85
2022/08/22 07:19:34;;;;;;;11.10;10.80;;;19.70;99.90;;;;;;5003583;28;20264;-83
2022/08/22 07:25:14;;;;;;;10.95;10.65;;;19.90;99.90;;;;;;4998582;28;20237;-83
2022/08/22 07:28:00;;;;;;;11.10;10.80;;;20.10;99.90;;;;;;5003033;28;20244;-83
2022/08/22 07:30:47;;;;;;;10.93;10.63;;;20.20;99.90;;;;;;4998450;28;20257;-81
2022/08/22 07:36:31;;;;;;;11.20;10.90;;;20.40;99.90;;;;;;5015194;28;20233;-84
2022/08/22 07:39:31;;;;;;;11.60;11.20;;;20.60;99.90;;;;;;5004542;28;20287;-84
2022/08/22 07:42:26;;;;;;;11.20;10.90;;;20.80;99.90;;;;;;5008590;28;20229;-85
2022/08/22 07:45:29;;;;;;;11.10;10.80;;;20.90;99.90;;;;;;5001490;28;20287;-87
2022/08/22 07:51:29;;;;;;;11.02;10.73;;;21.20;99.90;;;;;;4996615;28;20233;-84
2022/08/22 07:54:07;;;;;;;11.00;10.70;;;21.30;99.90;;;;;;4985526;28;20237;-85
2022/08/22 07:56:44;;;;;;;11.02;10.73;;;21.40;99.90;;;;;;4998083;28;20240;-85
2022/08/22 07:59:34;;;;;;;11.35;11.05;;;21.50;99.90;;;;;;5004258;28;20326;-87
2022/08/22 08:08:11;;;;;;;11.18;10.88;;;22.10;99.90;;;;;;5004989;28;20221;-83
2022/08/22 08:10:42;;;;;;;11.57;11.20;;;22.10;99.90;;;;;;5004624;28;20236;-83
2022/08/22 08:13:28;;;;;;;11.30;11.00;;;22.30;99.90;;;;;;5004148;28;20296;-87
2022/08/22 08:22:26;;;;;;;11.52;11.23;;;22.60;99.90;;;;;;4963098;28;20318;-83
2022/08/22 09:14:48;;;;;;;11.55;11.15;;;25.30;99.90;;;;;;4905239;29;20233;-84
2022/08/22 09:18:17;;;;;;;11.30;11.00;;;25.90;99.90;;;;;;4865630;29;20716;-88
2022/08/22 09:21:28;;;;;;;11.68;11.27;;;26.00;99.90;;;;;;4935629;29;20263;-86
2022/08/22 09:31:52;;;;;;;11.40;11.10;;;26.80;99.90;;;;;;5015537;28;20244;-85
2022/08/22 09:47:07;;;;;;;11.60;11.20;;;27.10;99.90;;;;;;5049972;22;20251;-84
2022/08/22 09:50:03;;;;;;;11.52;11.15;;;27.00;99.90;;;;;;4937047;28;20235;-84
2022/08/22 09:53:05;;;;;;;11.43;11.13;;;27.20;99.90;;;;;;5022016;28;20255;-87
2022/08/22 09:55:45;;;;;;;11.20;10.90;;;27.30;99.90;;;;;;4983772;28;20237;-84
2022/08/22 09:58:29;;;;;;;11.20;10.90;;;27.50;99.90;;;;;;4981610;28;20316;-87
2022/08/22 10:01:08;;;;;;;11.25;10.95;;;27.50;99.90;;;;;;4983564;28;20237;-84
2022/08/22 10:04:42;;;;;;;11.43;11.13;;;27.20;99.90;;;;;;4982677;28;20241;-82
2022/08/22 10:11:10;;;;;;;11.40;11.10;;;27.10;99.90;;;;;;4982849;28;20224;-84
2022/08/22 10:13:55;;;;;;;11.65;11.27;;;27.20;99.90;;;;;;4985469;28;20704;-83
2022/08/22 10:16:41;;;;;;;11.43;11.13;;;27.40;99.90;;;;;;4999276;28;20775;-79
2022/08/22 10:19:19;;;;;;;11.60;11.25;;;27.70;99.90;;;;;;4999945;28;20227;-78
2022/08/22 10:22:18;;;;;;;11.63;11.25;;;27.70;99.90;;;;;;4999155;28;20288;-78
2022/08/22 10:24:54;;;;;;;11.80;11.40;;;27.90;99.90;;;;;;4998600;28;20233;-78
2022/08/22 10:27:41;;;;;;;11.68;11.27;;;28.20;99.90;;;;;;4999428;28;20226;-78
2022/08/22 10:30:13;;;;;;;11.43;11.13;;;28.50;99.90;;;;;;5007594;28;20270;-80
2022/08/22 10:32:49;;;;;;;11.43;11.13;;;28.50;99.90;;;;;;4999319;28;20221;-78
2022/08/22 10:35:26;;;;;;;11.27;10.98;;;28.50;99.90;;;;;;5001446;28;20256;-80
2022/08/22 10:37:59;;;;;;;11.40;11.10;;;28.50;99.90;;;;;;5004679;28;20256;-80
2022/08/22 10:40:35;;;;;;;11.88;11.48;;;28.40;99.90;;;;;;5000844;28;20228;-80
2022/08/22 10:43:13;;;;;;;11.45;11.15;;;28.20;99.90;;;;;;5001527;28;20251;-80
2022/08/22 10:45:45;;;;;;;11.32;11.02;;;28.00;99.90;;;;;;5005632;28;20318;-80
2022/08/22 10:48:39;;;;;;;11.38;11.07;;;28.10;99.90;;;;;;5013949;28;20285;-80
2022/08/22 10:51:25;;;;;;;11.70;11.30;;;28.10;99.90;;;;;;5024935;28;20239;-80
2022/08/22 10:54:29;;;;;;;11.50;11.20;;;28.50;99.90;;;;;;5004642;28;20268;-81
2022/08/22 10:57:17;;;;;;;11.65;11.27;;;28.90;99.90;;;;;;5001267;28;20331;-80
2022/08/22 10:59:59;;;;;;;11.38;11.07;;;29.10;99.90;;;;;;5002435;28;20272;-80
2022/08/22 11:02:54;;;;;;;11.77;11.38;;;29.10;99.90;;;;;;5023633;22;20242;-79
2022/08/22 11:05:40;;;;;;;12.07;11.68;;;28.90;99.90;;;;;;5023604;28;20272;-80
2022/08/22 11:08:42;;;;;;;12.02;11.63;;;29.00;99.90;;;;;;5023508;28;20235;-80
2022/08/22 11:11:24;;;;;;;11.90;11.50;;;29.60;99.90;;;;;;5023845;28;20304;-80
2022/08/22 11:14:27;;;;;;;11.50;11.20;;;29.90;99.90;;;;;;5022859;28;20353;-80
2022/08/22 11:17:21;;;;;;;11.23;10.93;;;30.10;99.90;;;;;;5024406;28;20242;-80
2022/08/22 11:20:08;;;;;;;10.80;10.50;;;30.30;99.90;;;;;;5023489;28;20296;-80
2022/08/22 11:22:46;;;;;;;10.90;10.60;;;29.50;99.90;;;;;;5023781;28;20323;-81
2022/08/22 11:25:34;;;;;;;10.68;10.38;;;28.90;99.90;;;;;;5020819;28;20291;-79
2022/08/22 11:28:29;;;;;;;11.10;10.80;;;28.70;99.90;;;;;;5029422;28;20239;-78
2022/08/22 11:31:11;;;;;;;10.80;10.50;;;29.00;99.90;;;;;;5022238;28;20256;-79
2022/08/22 11:33:48;;;;;;;10.88;10.57;;;29.10;99.90;;;;;;5018822;28;20319;-78
2022/08/22 11:36:34;;;;;;;11.00;10.70;;;29.10;99.90;;;;;;5023100;28;20236;-79
2022/08/22 11:39:12;;;;;;;11.13;10.82;;;29.40;99.90;;;;;;5023940;28;20226;-79
2022/08/22 11:41:49;;;;;;;11.20;10.90;;;29.80;99.90;;;;;;5022756;28;20240;-80
2022/08/22 11:44:22;;;;;;;11.25;10.95;;;30.20;99.90;;;;;;5023325;28;20362;-80
2022/08/22 11:46:57;;;;;;;11.38;11.07;;;30.50;99.90;;;;;;5023241;28;20231;-84
2022/08/22 11:49:40;;;;;;;11.23;10.93;;;30.80;99.90;;;;;;5024606;28;20231;-80
2022/08/22 11:52:22;;;;;;;10.98;10.68;;;30.90;99.90;;;;;;5023535;28;20290;-79
2022/08/22 11:55:25;;;;;;;10.93;10.63;;;31.20;99.90;;;;;;5023700;28;20319;-79
2022/08/22 11:57:59;;;;;;;10.90;10.60;;;31.20;99.90;;;;;;5022838;28;20716;-79
2022/08/22 12:00:37;;;;;;;11.00;10.70;;;31.20;99.90;;;;;;5007583;28;20225;-79
2022/08/22 12:03:41;;;;;;;11.00;10.70;;;31.10;99.90;;;;;;5021129;28;20247;-79
2022/08/22 12:06:40;;;;;;;10.88;10.57;;;31.30;99.90;;;;;;5018233;28;20236;-78
2022/08/22 12:09:41;;;;;;;11.00;10.70;;;31.60;99.90;;;;;;5026963;28;20220;-79
2022/08/22 12:12:50;;;;;;;11.43;11.13;;;31.30;99.90;;;;;;5022028;28;20275;-79
2022/08/22 12:15:24;;;;;;;11.20;10.90;;;31.10;99.90;;;;;;5023386;28;20300;-80
2022/08/22 12:18:36;;;;;;;11.27;10.98;;;31.30;99.90;;;;;;5027058;28;20232;-80
2022/08/22 12:21:47;;;;;;;11.20;10.90;;;31.80;99.90;;;;;;5025147;28;20331;-81
2022/08/22 12:24:46;;;;;;;11.23;10.93;;;31.70;99.90;;;;;;5024808;28;20255;-84
2022/08/22 12:27:33;;;;;;;11.63;11.23;;;31.60;99.90;;;;;;5025411;28;20312;-79
2022/08/22 12:30:16;;;;;;;11.10;10.80;;;31.80;99.90;;;;;;5025953;28;20232;-78
2022/08/22 12:33:35;;;;;;;11.40;11.10;;;32.20;99.90;;;;;;5024678;28;20232;-80
2022/08/22 12:36:35;;;;;;;11.30;11.00;;;32.50;99.90;;;;;;5013299;28;20228;-79
2022/08/22 12:39:45;;;;;;;11.85;11.45;;;32.70;99.90;;;;;;5024569;28;20292;-78
2022/08/22 12:42:35;;;;;;;11.10;10.80;;;33.00;99.90;;;;;;5025322;28;20255;-80
2022/08/22 12:45:24;;;;;;;10.80;10.50;;;32.30;99.90;;;;;;5026098;28;20260;-79
2022/08/22 12:48:08;;;;;;;10.70;10.40;;;32.50;99.90;;;;;;5032873;28;21043;-79
2022/08/22 12:50:44;;;;;;;11.02;10.73;;;32.20;99.90;;;;;;5035951;28;20300;-79
2022/08/22 12:53:43;;;;;;;10.90;10.60;;;32.10;99.90;;;;;;5035060;28;20238;-79
2022/08/22 12:56:28;;;;;;;10.90;10.60;;;32.20;99.90;;;;;;5028165;28;20248;-78
2022/08/22 12:59:23;;;;;;;11.32;11.02;;;32.40;99.90;;;;;;5033950;28;20239;-79
2022/08/22 13:01:54;;;;;;;11.60;11.20;;;31.70;99.90;;;;;;5024060;28;20268;-79
2022/08/22 13:04:27;;;;;;;11.40;11.10;;;31.40;99.90;;;;;;5034598;28;20292;-79
2022/08/22 13:07:23;;;;;;;11.77;11.38;;;31.30;99.90;;;;;;5035100;28;20239;-79
2022/08/22 13:09:57;;;;;;;11.70;11.30;;;31.70;99.90;;;;;;5033431;28;21028;-78
2022/08/22 13:12:31;;;;;;;11.30;11.00;;;31.80;99.90;;;;;;5029924;28;20240;-77
2022/08/22 13:15:03;;;;;;;11.23;10.93;;;31.80;99.90;;;;;;5027358;28;20326;-79
2022/08/22 13:17:31;;;;;;;11.35;11.05;;;31.80;99.90;;;;;;5051375;28;20231;-79
2022/08/22 13:20:11;;;;;;;11.25;10.95;;;32.10;99.90;;;;;;5045543;28;20233;-78
2022/08/22 13:22:42;;;;;;;11.18;10.88;;;32.00;99.90;;;;;;5030616;28;20259;-78
2022/08/22 13:25:25;;;;;;;11.13;10.82;;;31.80;99.90;;;;;;5019452;28;20242;-77
2022/08/22 13:27:56;;;;;;;11.30;11.00;;;31.80;99.90;;;;;;5019613;28;20239;-77
2022/08/22 13:30:31;;;;;;;11.07;10.77;;;32.00;99.90;;;;;;5022484;28;20283;-77
2022/08/22 13:33:08;;;;;;;10.23;9.93;;;32.30;99.90;;;;;;5026008;28;20327;-78
2022/08/22 13:35:42;;;;;;;10.50;10.20;;;32.40;99.90;;;;;;5023004;28;20236;-78
2022/08/22 13:38:14;;;;;;;10.23;9.93;;;32.20;99.90;;;;;;5019920;28;20232;-78
2022/08/22 13:40:50;;;;;;;10.80;10.50;;;32.30;99.90;;;;;;5017599;28;20392;-76
2022/08/22 13:43:22;;;;;;;10.80;10.50;;;32.40;99.90;;;;;;5017828;28;20242;-77
2022/08/22 13:45:55;;;;;;;11.00;10.70;;;32.50;99.90;;;;;;5017108;28;20236;-77
2022/08/22 13:48:27;;;;;;;10.80;10.50;;;32.70;99.90;;;;;;5015480;28;20240;-77
2022/08/22 13:51:07;;;;;;;11.13;10.82;;;32.90;99.90;;;;;;5017346;28;20232;-75
2022/08/22 13:53:43;;;;;;;11.02;10.73;;;33.00;99.90;;;;;;5018459;28;20795;-77
2022/08/22 13:56:18;;;;;;;10.90;10.60;;;32.80;99.90;;;;;;5017826;28;20232;-77
2022/08/22 13:58:50;;;;;;;10.57;10.27;;;32.90;99.90;;;;;;5018809;28;20278;-78
2022/08/22 14:01:37;;;;;;;10.50;10.20;;;32.90;99.90;;;;;;5017750;28;20267;-77
2022/08/22 14:04:19;;;;;;;10.77;10.48;;;33.10;99.90;;;;;;5018028;28;20248;-77
2022/08/22 14:06:53;;;;;;;10.55;10.25;;;33.10;99.90;;;;;;5017495;28;21064;-77
2022/08/22 14:09:37;;;;;;;10.70;10.40;;;33.30;99.90;;;;;;5014800;28;20239;-77
2022/08/22 14:12:13;;;;;;;10.65;10.35;;;33.10;99.90;;;;;;5016297;28;20228;-77
2022/08/22 14:14:50;;;;;;;11.20;10.90;;;32.70;99.90;;;;;;5020175;28;20246;-80
2022/08/22 14:17:21;;;;;;;11.05;10.75;;;33.00;99.90;;;;;;5020125;28;20304;-79
2022/08/22 14:19:57;;;;;;;11.18;10.88;;;32.90;99.90;;;;;;5019908;28;20246;-79
2022/08/22 14:22:28;;;;;;;11.60;11.30;;;32.70;99.90;;;;;;5017071;28;20224;-76
2022/08/22 14:24:59;;;;;;;11.50;11.20;;;32.60;99.90;;;;;;5017266;28;20242;-78
2022/08/22 14:27:37;;;;;;;11.30;11.00;;;32.40;99.90;;;;;;5010250;28;20295;-82
2022/08/22 14:30:12;;;;;;;11.70;11.30;;;31.90;99.90;;;;;;5020987;28;20263;-79
2022/08/22 14:32:49;;;;;;;11.43;11.13;;;31.40;99.90;;;;;;5021221;28;20242;-79
2022/08/22 14:35:23;;;;;;;10.98;10.68;;;31.10;99.90;;;;;;5022092;28;20291;-79
2022/08/22 14:38:11;;;;;;;11.20;10.90;;;31.20;99.90;;;;;;5022693;28;20256;-78
2022/08/22 14:40:38;;;;;;;10.98;10.68;;;31.60;99.90;;;;;;5021267;28;20235;-78
2022/08/22 14:43:20;;;;;;;11.10;10.80;;;31.90;99.90;;;;;;5021362;28;20351;-78
2022/08/22 14:45:58;;;;;;;11.00;10.70;;;31.70;99.90;;;;;;5020656;28;20232;-78
2022/08/22 14:48:31;;;;;;;11.48;11.18;;;30.70;99.90;;;;;;5000871;28;20309;-80
2022/08/22 14:51:03;;;;;;;11.60;11.30;;;29.80;99.90;;;;;;5001730;28;20236;-79
2022/08/22 14:53:33;;;;;;;10.90;10.60;;;29.50;99.90;;;;;;5002112;28;20267;-79
2022/08/22 14:56:07;;;;;;;11.07;10.77;;;29.30;99.90;;;;;;5000535;28;20681;-79
2022/08/22 14:58:52;;;;;;;10.90;10.60;;;29.30;99.90;;;;;;5001554;28;20261;-79
2022/08/22 15:01:25;;;;;;;11.10;10.80;;;29.30;99.90;;;;;;5001557;28;20327;-79
2022/08/22 15:04:00;;;;;;;11.10;10.80;;;29.20;99.90;;;;;;5008840;28;20288;-79
2022/08/22 15:06:35;;;;;;;11.20;10.90;;;29.00;99.90;;;;;;5012762;28;20299;-78
2022/08/22 15:09:07;;;;;;;11.20;10.90;;;29.00;99.90;;;;;;5008620;28;20319;-79
2022/08/22 15:11:37;;;;;;;11.45;11.15;;;28.90;99.90;;;;;;5006306;28;20292;-78
2022/08/22 15:14:12;;;;;;;11.10;10.80;;;29.00;99.90;;;;;;5014783;28;20565;-79
2022/08/22 15:16:49;;;;;;;11.20;10.90;;;28.90;99.90;;;;;;5032417;28;20304;-79
2022/08/22 15:19:26;;;;;;;11.07;10.77;;;28.80;99.90;;;;;;5030128;28;20322;-77
2022/08/22 15:22:14;;;;;;;11.00;10.70;;;28.80;99.90;;;;;;5026666;28;20330;-79
2022/08/22 15:24:46;;;;;;;11.10;10.80;;;28.70;99.90;;;;;;5025726;28;20330;-79
2022/08/22 15:27:20;;;;;;;10.75;10.45;;;28.60;99.90;;;;;;5028555;28;20275;-79
2022/08/22 15:29:56;;;;;;;11.50;11.20;;;28.70;99.90;;;;;;5025673;28;20239;-80
2022/08/22 15:32:28;;;;;;;11.10;10.80;;;28.50;99.90;;;;;;5009650;28;20228;-80
2022/08/22 15:35:06;;;;;;;11.00;10.70;;;28.70;99.90;;;;;;5006591;28;20233;-79
2022/08/22 15:37:36;;;;;;;10.90;10.60;;;28.60;99.90;;;;;;5006196;28;20232;-78
2022/08/22 15:40:29;;;;;;;10.80;10.50;;;28.60;99.90;;;;;;5006770;28;20292;-79
2022/08/22 15:43:03;;;;;;;10.50;10.20;;;29.10;99.90;;;;;;5029173;28;20374;-81
2022/08/22 15:45:37;;;;;;;10.68;10.38;;;29.50;99.90;;;;;;5022563;28;20320;-78
2022/08/22 15:48:12;;;;;;;10.90;10.60;;;30.00;99.90;;;;;;5005599;28;20241;-79
2022/08/22 15:50:56;;;;;;;10.52;10.23;;;30.50;99.90;;;;;;5006265;28;20232;-78
2022/08/22 15:53:30;;;;;;;10.50;10.20;;;30.70;99.90;;;;;;5005032;28;20307;-78
2022/08/22 15:56:27;;;;;;;10.93;10.63;;;30.50;99.90;;;;;;5004515;28;20240;-79
2022/08/22 15:59:35;;;;;;;11.05;10.75;;;30.30;99.90;;;;;;5003153;28;20236;-78
2022/08/22 16:02:11;;;;;;;11.00;10.70;;;30.10;99.90;;;;;;5004241;28;20245;-78
2022/08/22 16:04:48;;;;;;;11.10;10.80;;;29.90;99.90;;;;;;5004619;28;20292;-78
2022/08/22 16:07:34;;;;;;;10.82;10.52;;;29.60;99.90;;;;;;5005009;28;20233;-79
2022/08/22 16:10:10;;;;;;;10.90;10.60;;;29.40;99.90;;;;;;5005160;28;20224;-79
2022/08/22 16:12:42;;;;;;;10.73;10.43;;;29.20;99.90;;;;;;5005778;28;20237;-79